Time;durP1;ratioP1;P1;durP2;ratioP2;P2;SDS_P1;SDS_P2;PMS_P1;PMS_P2;Temp;Humidity;BMP_temperature;BMP_pressure;BME280_temperature;BME280_humidity;BME280_pressure;Samples;Min_cycle;Max_cycle;Signal;HPM_P1;HPM_P2
2022/07/28 00:00:33;;;;;;;;;;;20.80;61.20;;;;;;1997230;28;19906;-70
2022/07/28 00:01:32;;;;;;;;;;;20.80;61.20;;;;;;1997904;28;19909;-68
2022/07/28 00:02:30;;;;;;;;;;;20.70;61.00;;;;;;1997866;28;19936;-69
2022/07/28 00:03:29;;;;;;;;;;;20.70;61.00;;;;;;1998080;28;19906;-69
2022/07/28 00:04:27;;;;;;;;;;;20.70;61.10;;;;;;1997750;28;20365;-68
2022/07/28 00:05:26;;;;;;;;;;;20.80;61.20;;;;;;1998071;28;19906;-69
2022/07/28 00:06:24;;;;;;;;;;;20.70;61.10;;;;;;1997828;28;19968;-68
2022/07/28 00:07:23;;;;;;;;;;;20.70;61.10;;;;;;1989276;28;19922;-69
2022/07/28 00:08:22;;;;;;;;;;;20.70;61.10;;;;;;1989611;28;19989;-68
2022/07/28 00:09:20;;;;;;;;;;;20.70;61.10;;;;;;1997462;28;19906;-69
2022/07/28 00:10:19;;;;;;;;;;;20.70;61.10;;;;;;1997789;28;20321;-69
2022/07/28 00:11:17;;;;;;;;;;;20.70;61.10;;;;;;1997610;28;20406;-69
2022/07/28 00:12:16;;;;;;;;;;;20.70;61.20;;;;;;1997835;28;19906;-68
2022/07/28 00:13:14;;;;;;;;;;;20.70;61.20;;;;;;1997517;28;19906;-69
2022/07/28 00:14:13;;;;;;;;;;;20.70;61.20;;;;;;1997788;28;19905;-68
2022/07/28 00:15:11;;;;;;;;;;;20.70;61.20;;;;;;1997739;28;19929;-69
2022/07/28 00:16:10;;;;;;;;;;;20.70;61.20;;;;;;1997959;28;19912;-69
2022/07/28 00:17:08;;;;;;;;;;;20.70;61.20;;;;;;1997831;28;20395;-69
2022/07/28 00:18:07;;;;;;;;;;;20.70;61.20;;;;;;1997844;28;20276;-68
2022/07/28 00:19:05;;;;;;;;;;;20.70;61.90;;;;;;1997698;28;20364;-70
2022/07/28 00:20:04;;;;;;;;;;;20.70;61.30;;;;;;1997737;28;19906;-69
2022/07/28 00:21:03;;;;;;;;;;;20.70;61.30;;;;;;1997599;28;20276;-69
2022/07/28 00:22:01;;;;;;;;;;;20.70;61.30;;;;;;1997817;28;19965;-69
2022/07/28 00:23:00;;;;;;;;;;;20.70;61.30;;;;;;1997789;28;19928;-69
2022/07/28 00:23:58;;;;;;;;;;;20.70;61.30;;;;;;1997938;28;19905;-69
2022/07/28 00:24:57;;;;;;;;;;;20.70;61.30;;;;;;1997722;28;20210;-69
2022/07/28 00:25:56;;;;;;;;;;;20.70;61.30;;;;;;1997741;28;20372;-69
2022/07/28 00:26:54;;;;;;;;;;;20.70;61.30;;;;;;1997586;28;20400;-69
2022/07/28 00:27:52;;;;;;;;;;;20.70;61.30;;;;;;1997154;28;19906;-69
2022/07/28 00:28:51;;;;;;;;;;;20.70;61.30;;;;;;1997365;28;19909;-69
2022/07/28 00:29:50;;;;;;;;;;;20.70;61.40;;;;;;1997637;28;20285;-69
2022/07/28 00:30:48;;;;;;;;;;;20.70;61.30;;;;;;1997631;28;20219;-69
2022/07/28 00:31:47;;;;;;;;;;;20.70;61.40;;;;;;1997587;28;20019;-69
2022/07/28 00:32:45;;;;;;;;;;;20.70;61.40;;;;;;1997588;28;19913;-68
2022/07/28 00:33:43;;;;;;;;;;;20.70;61.40;;;;;;1997718;28;19912;-69
2022/07/28 00:34:42;;;;;;;;;;;20.70;61.40;;;;;;1997623;28;20375;-69
2022/07/28 00:35:41;;;;;;;;;;;20.70;61.40;;;;;;1997610;28;19956;-69
2022/07/28 00:36:39;;;;;;;;;;;20.70;61.40;;;;;;1997718;28;19906;-70
2022/07/28 00:37:38;;;;;;;;;;;20.70;61.50;;;;;;1997481;28;19905;-69
2022/07/28 00:38:36;;;;;;;;;;;20.70;61.40;;;;;;1997603;28;19910;-69
2022/07/28 00:39:35;;;;;;;;;;;20.70;61.40;;;;;;1997833;28;19905;-69
2022/07/28 00:41:51;;;;;;;;;;;20.70;61.50;;;;;;1997766;28;19944;-69
2022/07/28 00:42:49;;;;;;;;;;;20.70;61.50;;;;;;1989429;28;20001;-69
2022/07/28 00:43:49;;;;;;;;;;;20.70;61.50;;;;;;1989271;28;19906;-69
2022/07/28 00:44:48;;;;;;;;;;;20.70;61.50;;;;;;1988976;28;19957;-69
2022/07/28 00:45:46;;;;;;;;;;;20.70;61.50;;;;;;1989278;28;19952;-69
2022/07/28 00:46:45;;;;;;;;;;;20.70;61.50;;;;;;1997021;28;19906;-69
2022/07/28 00:47:43;;;;;;;;;;;20.70;61.60;;;;;;1997554;28;19910;-68
2022/07/28 00:48:43;;;;;;;;;;;20.70;61.60;;;;;;1997687;28;19916;-68
2022/07/28 00:49:43;;;;;;;;;;;20.70;61.60;;;;;;1997799;28;19906;-68
2022/07/28 00:50:42;;;;;;;;;;;20.70;61.60;;;;;;1997584;28;20012;-69
2022/07/28 00:51:40;;;;;;;;;;;20.70;61.60;;;;;;1997648;28;19909;-68
2022/07/28 00:52:39;;;;;;;;;;;20.70;61.60;;;;;;1997829;28;20050;-68
2022/07/28 00:53:38;;;;;;;;;;;20.70;61.60;;;;;;1989306;28;19906;-68
2022/07/28 00:54:36;;;;;;;;;;;20.70;61.60;;;;;;1989192;28;19912;-69
2022/07/28 00:55:36;;;;;;;;;;;20.70;61.60;;;;;;1996976;28;19952;-69
2022/07/28 00:56:35;;;;;;;;;;;20.70;61.60;;;;;;1989038;28;19906;-69
2022/07/28 00:57:33;;;;;;;;;;;20.70;61.60;;;;;;1989170;28;19974;-68
2022/07/28 00:58:32;;;;;;;;;;;20.70;61.60;;;;;;1996939;28;20357;-68
2022/07/28 00:59:30;;;;;;;;;;;20.70;61.60;;;;;;1997431;28;19905;-68
2022/07/28 01:00:29;;;;;;;;;;;20.70;61.70;;;;;;1997327;28;20004;-68
2022/07/28 01:01:27;;;;;;;;;;;20.70;61.60;;;;;;1997436;28;19906;-68
2022/07/28 01:02:26;;;;;;;;;;;20.70;61.60;;;;;;1997391;28;19906;-68
2022/07/28 01:03:25;;;;;;;;;;;20.70;61.60;;;;;;1997446;28;19906;-68
2022/07/28 01:04:23;;;;;;;;;;;20.70;61.70;;;;;;1997448;28;19912;-68
2022/07/28 01:05:23;;;;;;;;;;;20.70;61.80;;;;;;1997512;28;19910;-68
2022/07/28 01:06:31;;;;;;;;;;;20.60;61.60;;;;;;1997413;28;19933;-68
2022/07/28 01:07:41;;;;;;;;;;;20.60;61.70;;;;;;1997309;28;20381;-68
2022/07/28 01:08:40;;;;;;;;;;;20.60;61.60;;;;;;1997494;28;19956;-68
2022/07/28 01:09:51;;;;;;;;;;;20.60;61.60;;;;;;1997361;28;20411;-68
2022/07/28 01:11:03;;;;;;;;;;;20.60;61.60;;;;;;1997276;28;19906;-68
2022/07/28 01:12:20;;;;;;;;;;;20.70;61.70;;;;;;1997385;28;20365;-68
2022/07/28 01:13:30;;;;;;;;;;;20.60;61.70;;;;;;1988955;28;20393;-68
2022/07/28 01:14:43;;;;;;;;;;;20.60;61.60;;;;;;1989868;28;20372;-68
2022/07/28 01:16:00;;;;;;;;;;;20.60;61.70;;;;;;1996961;28;20655;-70
2022/07/28 01:17:04;;;;;;;;;;;20.60;61.70;;;;;;1997503;28;19906;-69
2022/07/28 01:18:10;;;;;;;;;;;20.60;61.70;;;;;;1997278;28;19933;-70
2022/07/28 01:19:14;;;;;;;;;;;20.70;61.80;;;;;;1997376;28;19949;-70
2022/07/28 01:20:12;;;;;;;;;;;20.60;61.70;;;;;;1997282;28;19910;-70
2022/07/28 01:21:12;;;;;;;;;;;20.60;61.70;;;;;;1997255;28;20436;-70
2022/07/28 01:22:14;;;;;;;;;;;20.60;61.70;;;;;;1997266;28;19906;-70
2022/07/28 01:23:25;;;;;;;;;;;20.60;61.70;;;;;;1997387;28;19955;-70
2022/07/28 01:24:26;;;;;;;;;;;20.60;61.70;;;;;;1997213;28;19905;-69
2022/07/28 01:25:39;;;;;;;;;;;20.60;61.70;;;;;;1997341;28;20265;-70
2022/07/28 01:26:46;;;;;;;;;;;20.60;61.70;;;;;;1997421;28;19906;-70
2022/07/28 01:28:03;;;;;;;;;;;20.60;61.80;;;;;;1997145;28;19920;-70
2022/07/28 01:29:02;;;;;;;;;;;20.60;61.80;;;;;;1997344;28;19909;-70
2022/07/28 01:30:06;;;;;;;;;;;20.60;61.80;;;;;;1997221;28;19936;-69
2022/07/28 01:31:06;;;;;;;;;;;20.60;61.80;;;;;;1997116;28;19905;-70
2022/07/28 01:32:17;;;;;;;;;;;20.60;61.90;;;;;;1997292;28;19957;-70
2022/07/28 01:33:17;;;;;;;;;;;20.60;61.80;;;;;;1997195;28;19906;-69
2022/07/28 01:34:18;;;;;;;;;;;20.60;61.80;;;;;;1997260;28;19905;-70
2022/07/28 01:35:23;;;;;;;;;;;20.60;61.80;;;;;;1997150;28;19913;-70
2022/07/28 01:36:24;;;;;;;;;;;20.60;61.90;;;;;;1997204;28;20261;-70
2022/07/28 01:37:27;;;;;;;;;;;20.60;61.80;;;;;;1988747;28;20005;-70
2022/07/28 01:38:27;;;;;;;;;;;20.60;61.80;;;;;;1989135;28;20353;-70
2022/07/28 01:39:28;;;;;;;;;;;20.60;61.90;;;;;;1988463;28;19916;-70
2022/07/28 01:40:28;;;;;;;;;;;20.60;61.80;;;;;;1988741;28;19977;-70
2022/07/28 01:41:28;;;;;;;;;;;20.60;61.80;;;;;;1997247;28;19906;-70
2022/07/28 01:42:29;;;;;;;;;;;20.60;61.90;;;;;;1997171;28;19912;-69
2022/07/28 01:43:30;;;;;;;;;;;20.60;61.90;;;;;;1997212;28;20273;-70
2022/07/28 01:44:31;;;;;;;;;;;20.60;61.90;;;;;;1997139;28;20073;-70
2022/07/28 01:45:31;;;;;;;;;;;20.60;61.90;;;;;;1997036;28;19905;-69
2022/07/28 01:46:30;;;;;;;;;;;20.60;61.90;;;;;;1997106;28;20072;-70
2022/07/28 01:47:29;;;;;;;;;;;20.60;62.00;;;;;;1988612;28;19917;-69
2022/07/28 01:48:28;;;;;;;;;;;20.60;61.90;;;;;;1988888;28;19912;-70
2022/07/28 01:49:28;;;;;;;;;;;20.60;61.90;;;;;;1988261;28;20010;-70
2022/07/28 01:50:27;;;;;;;;;;;20.60;62.00;;;;;;1988668;28;19935;-70
2022/07/28 01:51:27;;;;;;;;;;;20.60;62.00;;;;;;1996898;28;19960;-70
2022/07/28 01:52:26;;;;;;;;;;;20.60;62.00;;;;;;1997087;28;19910;-69
2022/07/28 01:53:26;;;;;;;;;;;20.60;62.00;;;;;;1997120;28;19906;-70
2022/07/28 01:54:27;;;;;;;;;;;20.60;62.00;;;;;;1997130;28;19957;-69
2022/07/28 01:55:26;;;;;;;;;;;20.60;62.00;;;;;;1988753;28;19977;-69
2022/07/28 01:56:26;;;;;;;;;;;20.60;62.00;;;;;;1988739;28;19913;-69
2022/07/28 01:57:25;;;;;;;;;;;20.60;62.00;;;;;;1988651;28;20040;-69
2022/07/28 01:58:24;;;;;;;;;;;20.60;62.00;;;;;;1988798;28;19906;-69
2022/07/28 01:59:23;;;;;;;;;;;20.60;62.00;;;;;;1996706;28;19909;-69
2022/07/28 02:00:23;;;;;;;;;;;20.60;62.00;;;;;;1996973;28;20521;-69
2022/07/28 02:01:22;;;;;;;;;;;20.60;62.00;;;;;;1997156;28;19912;-69
2022/07/28 02:02:21;;;;;;;;;;;20.60;62.00;;;;;;1997057;28;19945;-69
2022/07/28 02:03:21;;;;;;;;;;;20.60;62.00;;;;;;1988608;28;19906;-69
2022/07/28 02:04:20;;;;;;;;;;;20.60;62.00;;;;;;1988687;28;19989;-69
2022/07/28 02:05:20;;;;;;;;;;;20.60;62.00;;;;;;1996999;28;20285;-69
2022/07/28 02:06:20;;;;;;;;;;;20.60;62.00;;;;;;1997028;28;19986;-69
2022/07/28 02:07:19;;;;;;;;;;;20.60;62.00;;;;;;1997164;28;19965;-69
2022/07/28 02:08:19;;;;;;;;;;;20.60;62.00;;;;;;1997069;28;20033;-69
2022/07/28 02:09:17;;;;;;;;;;;20.60;62.00;;;;;;1996965;28;19937;-69
2022/07/28 02:10:16;;;;;;;;;;;20.60;62.00;;;;;;1996952;28;19906;-69
2022/07/28 02:12:34;;;;;;;;;;;20.60;62.10;;;;;;1997107;28;20352;-69
2022/07/28 02:13:33;;;;;;;;;;;20.60;62.00;;;;;;1996990;28;19909;-69
2022/07/28 02:14:35;;;;;;;;;;;20.60;62.10;;;;;;1997019;28;19916;-69
2022/07/28 02:15:35;;;;;;;;;;;20.60;62.10;;;;;;1996981;28;19912;-70
2022/07/28 02:16:33;;;;;;;;;;;20.60;62.10;;;;;;1996967;28;19906;-69
2022/07/28 02:17:33;;;;;;;;;;;20.60;62.10;;;;;;1997156;28;19909;-69
2022/07/28 02:18:32;;;;;;;;;;;20.60;62.10;;;;;;1997178;28;19918;-69
2022/07/28 02:19:31;;;;;;;;;;;20.60;62.10;;;;;;1997002;28;19937;-68
2022/07/28 02:20:30;;;;;;;;;;;20.60;62.10;;;;;;1996934;28;19905;-69
2022/07/28 02:21:30;;;;;;;;;;;20.60;62.10;;;;;;1997078;28;19910;-69
2022/07/28 02:22:29;;;;;;;;;;;20.60;62.10;;;;;;1997123;28;20075;-69
2022/07/28 02:23:27;;;;;;;;;;;20.60;62.20;;;;;;1997010;28;20371;-69
2022/07/28 02:24:27;;;;;;;;;;;20.60;62.10;;;;;;1996892;28;19928;-69
2022/07/28 02:25:26;;;;;;;;;;;20.60;62.20;;;;;;1996936;28;19905;-69
2022/07/28 02:26:31;;;;;;;;;;;20.60;62.10;;;;;;1996930;28;19906;-69
2022/07/28 02:27:37;;;;;;;;;;;20.60;62.20;;;;;;1996896;28;20053;-69
2022/07/28 02:28:39;;;;;;;;;;;20.60;62.20;;;;;;1997072;28;19929;-69
2022/07/28 02:29:42;;;;;;;;;;;20.60;62.20;;;;;;1997048;28;19992;-69
2022/07/28 02:30:46;;;;;;;;;;;20.60;62.20;;;;;;1997061;28;19906;-69
2022/07/28 02:31:50;;;;;;;;;;;20.60;62.20;;;;;;1996865;28;20044;-70
2022/07/28 02:33:01;;;;;;;;;;;20.60;62.20;;;;;;1996939;28;19949;-69
2022/07/28 02:34:01;;;;;;;;;;;20.60;62.20;;;;;;1997004;28;20022;-69
2022/07/28 02:35:20;;;;;;;;;;;20.60;62.20;;;;;;1996900;28;19906;-69
2022/07/28 02:36:24;;;;;;;;;;;20.60;62.20;;;;;;1989769;28;20272;-69
2022/07/28 02:37:23;;;;;;;;;;;20.60;62.20;;;;;;1997027;28;19910;-69
2022/07/28 02:38:25;;;;;;;;;;;20.50;62.20;;;;;;1988447;28;20013;-70
2022/07/28 02:39:33;;;;;;;;;;;20.60;62.20;;;;;;1988604;28;20262;-69
2022/07/28 02:40:36;;;;;;;;;;;20.60;62.20;;;;;;1996864;28;19917;-69
2022/07/28 02:41:40;;;;;;;;;;;20.50;62.20;;;;;;1996939;28;20050;-69
2022/07/28 02:42:39;;;;;;;;;;;20.50;62.20;;;;;;1988450;28;19953;-69
2022/07/28 02:43:40;;;;;;;;;;;20.50;62.20;;;;;;1988753;28;20345;-70
2022/07/28 02:44:40;;;;;;;;;;;20.50;62.20;;;;;;1996827;28;19928;-69
2022/07/28 02:45:40;;;;;;;;;;;20.60;62.30;;;;;;1996849;28;19913;-69
2022/07/28 02:46:43;;;;;;;;;;;20.60;62.30;;;;;;1996983;28;19906;-69
2022/07/28 02:47:50;;;;;;;;;;;20.50;62.20;;;;;;1996845;28;19910;-69
2022/07/28 02:48:51;;;;;;;;;;;20.50;62.20;;;;;;1996949;28;19913;-69
2022/07/28 02:49:52;;;;;;;;;;;20.50;62.20;;;;;;1996847;28;19909;-69
2022/07/28 02:50:52;;;;;;;;;;;20.50;62.20;;;;;;1996903;28;19905;-68
2022/07/28 02:51:51;;;;;;;;;;;20.60;62.30;;;;;;1997985;28;19906;-69
2022/07/28 02:52:51;;;;;;;;;;;20.50;62.20;;;;;;1998331;28;20349;-68
2022/07/28 02:53:51;;;;;;;;;;;20.50;62.20;;;;;;1998391;28;20264;-69
2022/07/28 02:54:50;;;;;;;;;;;20.50;62.20;;;;;;1998549;28;20361;-68
2022/07/28 02:55:49;;;;;;;;;;;20.50;62.30;;;;;;1998512;28;19906;-69
2022/07/28 02:56:49;;;;;;;;;;;20.50;62.20;;;;;;1998553;28;19913;-68
2022/07/28 02:57:48;;;;;;;;;;;20.50;62.30;;;;;;1998399;28;20334;-69
2022/07/28 02:58:46;;;;;;;;;;;20.50;62.30;;;;;;1998365;28;19913;-69
2022/07/28 02:59:47;;;;;;;;;;;20.50;62.20;;;;;;1998256;28;20368;-69
2022/07/28 03:00:49;;;;;;;;;;;20.50;62.30;;;;;;1998291;28;19905;-69
2022/07/28 03:01:48;;;;;;;;;;;20.50;62.30;;;;;;1989906;28;20381;-69
2022/07/28 03:02:47;;;;;;;;;;;20.50;62.30;;;;;;1990110;28;20050;-68
2022/07/28 03:03:47;;;;;;;;;;;20.50;62.30;;;;;;1989449;28;19960;-68
2022/07/28 03:04:58;;;;;;;;;;;20.50;62.30;;;;;;1989968;28;19913;-68
2022/07/28 03:05:56;;;;;;;;;;;20.50;62.30;;;;;;1998425;28;19906;-68
2022/07/28 03:06:55;;;;;;;;;;;20.50;62.40;;;;;;1998302;28;19906;-69
2022/07/28 03:07:54;;;;;;;;;;;20.50;62.40;;;;;;1998210;28;19910;-69
2022/07/28 03:08:53;;;;;;;;;;;20.50;62.40;;;;;;1998236;28;19905;-69
2022/07/28 03:09:52;;;;;;;;;;;20.50;62.40;;;;;;1998240;28;19916;-69
2022/07/28 03:11:04;;;;;;;;;;;20.50;62.40;;;;;;1998244;28;19906;-69
2022/07/28 03:12:03;;;;;;;;;;;20.50;62.40;;;;;;1998303;28;20004;-69
2022/07/28 03:13:02;;;;;;;;;;;20.50;62.40;;;;;;1998175;28;19918;-69
2022/07/28 03:14:01;;;;;;;;;;;20.50;62.40;;;;;;1998187;28;19991;-68
2022/07/28 03:14:59;;;;;;;;;;;20.50;62.40;;;;;;1998279;28;19952;-69
2022/07/28 03:15:58;;;;;;;;;;;20.50;62.40;;;;;;1998352;28;19913;-69
2022/07/28 03:16:56;;;;;;;;;;;20.50;62.40;;;;;;1998230;28;19989;-68
2022/07/28 03:17:55;;;;;;;;;;;20.50;62.50;;;;;;1989750;28;20337;-68
2022/07/28 03:18:55;;;;;;;;;;;20.50;62.40;;;;;;1989888;28;19941;-68
2022/07/28 03:19:53;;;;;;;;;;;20.50;62.40;;;;;;1997908;28;19906;-70
2022/07/28 03:20:52;;;;;;;;;;;20.50;62.40;;;;;;1998074;28;20341;-70
2022/07/28 03:21:52;;;;;;;;;;;20.50;62.50;;;;;;1989739;28;19906;-68
2022/07/28 03:22:51;;;;;;;;;;;20.50;62.50;;;;;;1989784;28;19954;-69
2022/07/28 03:23:50;;;;;;;;;;;20.50;62.50;;;;;;1997669;28;19906;-69
2022/07/28 03:24:50;;;;;;;;;;;20.50;62.50;;;;;;1998138;28;20280;-69
2022/07/28 03:25:50;;;;;;;;;;;20.50;62.50;;;;;;1989635;28;19906;-69
2022/07/28 03:27:10;;;;;;;;;;;20.50;62.50;;;;;;1989795;28;20358;-69
2022/07/28 03:28:16;;;;;;;;;;;20.50;62.40;;;;;;1998027;28;20048;-69
2022/07/28 03:29:16;;;;;;;;;;;20.50;62.50;;;;;;1998210;28;19980;-69
2022/07/28 03:30:19;;;;;;;;;;;20.50;62.50;;;;;;1998084;28;20380;-69
2022/07/28 03:31:18;;;;;;;;;;;20.50;62.50;;;;;;1998250;28;19912;-69
2022/07/28 03:32:18;;;;;;;;;;;20.50;62.50;;;;;;1998066;28;19957;-69
2022/07/28 03:33:17;;;;;;;;;;;20.50;62.50;;;;;;1998118;28;20329;-69
2022/07/28 03:34:15;;;;;;;;;;;20.50;62.50;;;;;;1998107;28;19906;-69
2022/07/28 03:35:14;;;;;;;;;;;20.50;62.50;;;;;;1998073;28;19905;-69
2022/07/28 03:36:15;;;;;;;;;;;20.50;62.50;;;;;;1998072;28;19905;-69
2022/07/28 03:37:15;;;;;;;;;;;20.50;62.50;;;;;;1998145;28;19906;-69
2022/07/28 03:38:17;;;;;;;;;;;20.50;62.50;;;;;;1997972;28;19912;-69
2022/07/28 03:39:17;;;;;;;;;;;20.50;62.50;;;;;;1998334;28;20077;-69
2022/07/28 03:40:16;;;;;;;;;;;20.50;62.50;;;;;;1998026;28;20337;-69
2022/07/28 03:41:15;;;;;;;;;;;20.50;62.50;;;;;;1998037;28;19905;-69
2022/07/28 03:42:17;;;;;;;;;;;20.50;62.50;;;;;;1997922;28;19906;-69
2022/07/28 03:43:17;;;;;;;;;;;20.50;62.50;;;;;;1997961;28;20341;-69
2022/07/28 03:44:16;;;;;;;;;;;20.50;62.50;;;;;;1998104;28;20349;-69
2022/07/28 03:45:16;;;;;;;;;;;20.50;62.50;;;;;;1998093;28;19926;-69
2022/07/28 03:46:14;;;;;;;;;;;20.50;62.50;;;;;;1997109;28;19992;-69
2022/07/28 03:47:13;;;;;;;;;;;20.50;62.60;;;;;;1997891;28;19905;-69
2022/07/28 03:48:12;;;;;;;;;;;20.50;62.60;;;;;;1997988;28;19916;-69
2022/07/28 03:49:11;;;;;;;;;;;20.50;62.60;;;;;;1998120;28;19906;-69
2022/07/28 03:50:09;;;;;;;;;;;20.50;62.60;;;;;;1997925;28;20350;-69
2022/07/28 03:51:08;;;;;;;;;;;20.50;62.60;;;;;;1997913;28;19956;-70
2022/07/28 03:52:07;;;;;;;;;;;20.50;62.60;;;;;;1997896;28;19913;-69
2022/07/28 03:53:09;;;;;;;;;;;20.50;62.60;;;;;;1997918;28;19905;-69
2022/07/28 03:54:08;;;;;;;;;;;20.50;62.60;;;;;;1997946;28;19921;-69
2022/07/28 03:55:07;;;;;;;;;;;20.50;62.60;;;;;;1997961;28;19909;-70
2022/07/28 03:56:06;;;;;;;;;;;20.50;62.60;;;;;;1998177;28;20449;-69
2022/07/28 03:57:04;;;;;;;;;;;20.50;62.60;;;;;;1998160;28;20121;-69
2022/07/28 03:58:03;;;;;;;;;;;20.50;62.60;;;;;;1998070;28;20272;-68
2022/07/28 03:59:01;;;;;;;;;;;20.50;62.60;;;;;;1998001;28;20276;-68
2022/07/28 04:00:00;;;;;;;;;;;20.50;62.60;;;;;;1997959;28;20269;-68
2022/07/28 04:00:58;;;;;;;;;;;20.50;62.60;;;;;;1997928;28;20000;-68
2022/07/28 04:01:57;;;;;;;;;;;20.50;62.60;;;;;;1997803;28;19992;-68
2022/07/28 04:02:55;;;;;;;;;;;20.50;62.60;;;;;;1997749;28;19913;-68
2022/07/28 04:03:54;;;;;;;;;;;20.50;62.60;;;;;;1997904;28;19905;-69
2022/07/28 04:04:52;;;;;;;;;;;20.50;62.60;;;;;;1998047;28;19909;-68
2022/07/28 04:05:50;;;;;;;;;;;20.50;62.60;;;;;;1997970;28;19956;-68
2022/07/28 04:06:49;;;;;;;;;;;20.50;62.60;;;;;;1989471;28;19913;-68
2022/07/28 04:07:48;;;;;;;;;;;20.50;62.60;;;;;;1989535;28;19937;-69
2022/07/28 04:08:46;;;;;;;;;;;20.50;62.60;;;;;;1997363;28;19906;-70
2022/07/28 04:09:45;;;;;;;;;;;20.50;62.70;;;;;;1998069;28;19949;-69
2022/07/28 04:10:43;;;;;;;;;;;20.50;62.70;;;;;;1997750;28;19906;-70
2022/07/28 04:11:42;;;;;;;;;;;20.50;62.90;;;;;;1997781;28;20067;-70
2022/07/28 04:12:48;;;;;;;;;;;20.50;62.60;;;;;;1997900;28;19916;-70
2022/07/28 04:13:46;;;;;;;;;;;20.50;62.70;;;;;;1997809;28;19913;-69
2022/07/28 04:14:45;;;;;;;;;;;20.50;62.60;;;;;;1997763;28;20380;-69
2022/07/28 04:15:43;;;;;;;;;;;20.50;62.70;;;;;;1997743;28;19951;-68
2022/07/28 04:16:42;;;;;;;;;;;20.50;62.60;;;;;;1998027;28;19976;-69
2022/07/28 04:17:41;;;;;;;;;;;20.50;62.60;;;;;;1997991;28;20425;-69
2022/07/28 04:18:39;;;;;;;;;;;20.50;62.60;;;;;;1989298;28;20322;-69
2022/07/28 04:19:38;;;;;;;;;;;20.50;62.70;;;;;;1989431;28;19957;-68
2022/07/28 04:20:36;;;;;;;;;;;20.50;62.60;;;;;;1997310;28;19909;-68
2022/07/28 04:21:35;;;;;;;;;;;20.50;62.70;;;;;;1997799;28;19956;-70
2022/07/28 04:22:33;;;;;;;;;;;20.50;62.70;;;;;;1997745;28;19905;-69
2022/07/28 04:23:32;;;;;;;;;;;20.50;62.70;;;;;;1997738;28;20320;-70
2022/07/28 04:24:30;;;;;;;;;;;20.50;62.70;;;;;;1997746;28;20361;-69
2022/07/28 04:25:29;;;;;;;;;;;20.50;62.70;;;;;;1989341;28;19906;-70
2022/07/28 04:26:27;;;;;;;;;;;20.50;62.70;;;;;;1989286;28;20249;-70
2022/07/28 04:27:26;;;;;;;;;;;20.50;62.70;;;;;;1997098;28;19910;-70
2022/07/28 04:28:25;;;;;;;;;;;20.50;62.70;;;;;;1997782;28;19912;-70
2022/07/28 04:29:23;;;;;;;;;;;20.50;62.70;;;;;;1997817;28;19953;-70
2022/07/28 04:30:26;;;;;;;;;;;20.50;62.70;;;;;;1997742;28;19910;-69
2022/07/28 04:31:25;;;;;;;;;;;20.50;62.70;;;;;;1997833;28;19905;-68
2022/07/28 04:32:24;;;;;;;;;;;20.50;62.70;;;;;;1997718;28;19905;-69
2022/07/28 04:33:24;;;;;;;;;;;20.50;62.70;;;;;;1997691;28;19917;-69
2022/07/28 04:34:22;;;;;;;;;;;20.50;62.70;;;;;;1997664;28;20276;-68
2022/07/28 04:35:26;;;;;;;;;;;20.50;62.70;;;;;;1997629;28;19913;-69
2022/07/28 04:36:24;;;;;;;;;;;20.50;62.70;;;;;;1997754;28;19912;-69
2022/07/28 04:37:23;;;;;;;;;;;20.50;62.70;;;;;;1997753;28;19912;-69
2022/07/28 04:38:21;;;;;;;;;;;20.50;62.70;;;;;;1997752;28;19949;-69
2022/07/28 04:39:20;;;;;;;;;;;20.50;62.70;;;;;;1989227;28;19941;-69
2022/07/28 04:40:18;;;;;;;;;;;20.50;63.40;;;;;;1989220;28;19955;-69
2022/07/28 04:41:17;;;;;;;;;;;20.50;62.70;;;;;;1996954;28;19906;-69
2022/07/28 04:42:17;;;;;;;;;;;20.50;62.70;;;;;;1997564;28;20004;-69
2022/07/28 04:43:15;;;;;;;;;;;20.50;62.70;;;;;;1997678;28;19949;-70
2022/07/28 04:44:15;;;;;;;;;;;20.50;62.70;;;;;;1997578;28;20320;-69
2022/07/28 04:45:14;;;;;;;;;;;20.50;62.70;;;;;;1997532;28;20336;-70
2022/07/28 04:46:13;;;;;;;;;;;20.50;62.70;;;;;;1997590;28;20000;-70
2022/07/28 04:47:12;;;;;;;;;;;20.50;62.70;;;;;;1997484;28;19905;-69
2022/07/28 04:48:11;;;;;;;;;;;20.50;62.70;;;;;;1997468;28;19913;-69
2022/07/28 04:49:10;;;;;;;;;;;20.50;62.70;;;;;;1997551;28;20312;-69
2022/07/28 04:50:09;;;;;;;;;;;20.50;62.70;;;;;;1997517;28;19910;-70
2022/07/28 04:51:07;;;;;;;;;;;20.50;62.70;;;;;;1997416;28;19906;-69
2022/07/28 04:52:09;;;;;;;;;;;20.50;62.70;;;;;;1997326;28;19912;-69
2022/07/28 04:53:07;;;;;;;;;;;20.50;62.80;;;;;;1997406;28;19910;-68
2022/07/28 04:54:06;;;;;;;;;;;20.50;62.80;;;;;;1997367;28;19941;-69
2022/07/28 04:55:05;;;;;;;;;;;20.50;62.80;;;;;;1997565;28;19933;-69
2022/07/28 04:56:03;;;;;;;;;;;20.50;62.80;;;;;;1997688;28;20440;-69
2022/07/28 04:57:02;;;;;;;;;;;20.50;62.80;;;;;;1997435;28;20356;-69
2022/07/28 04:58:01;;;;;;;;;;;20.50;62.80;;;;;;1997426;28;19910;-69
2022/07/28 04:59:00;;;;;;;;;;;20.50;62.80;;;;;;1997401;28;19906;-70
2022/07/28 05:00:02;;;;;;;;;;;20.50;62.80;;;;;;1997542;28;19906;-70
2022/07/28 05:01:01;;;;;;;;;;;20.50;62.80;;;;;;1997439;28;19912;-70
2022/07/28 05:01:59;;;;;;;;;;;20.50;62.80;;;;;;1997405;28;20264;-70
2022/07/28 05:02:58;;;;;;;;;;;20.50;62.80;;;;;;1997378;28;19949;-69
2022/07/28 05:03:56;;;;;;;;;;;20.50;62.80;;;;;;1997439;28;19912;-69
2022/07/28 05:04:55;;;;;;;;;;;20.50;62.80;;;;;;1997355;28;19944;-70
2022/07/28 05:05:53;;;;;;;;;;;20.50;62.80;;;;;;1997591;28;20284;-70
2022/07/28 05:06:52;;;;;;;;;;;20.50;62.80;;;;;;1997414;28;19933;-70
2022/07/28 05:07:53;;;;;;;;;;;20.50;62.80;;;;;;1997282;28;19910;-70
2022/07/28 05:08:51;;;;;;;;;;;20.50;62.70;;;;;;1997309;28;20004;-70
2022/07/28 05:09:50;;;;;;;;;;;20.50;62.80;;;;;;1997467;28;19905;-70
2022/07/28 05:10:48;;;;;;;;;;;20.50;62.70;;;;;;1997345;28;19906;-70
2022/07/28 05:11:46;;;;;;;;;;;20.50;62.70;;;;;;1997189;28;19924;-70
2022/07/28 05:12:46;;;;;;;;;;;20.50;62.70;;;;;;1997359;28;19906;-69
2022/07/28 05:13:45;;;;;;;;;;;20.50;62.70;;;;;;1997182;28;20262;-69
2022/07/28 05:14:43;;;;;;;;;;;20.50;62.70;;;;;;1996864;28;19953;-69
2022/07/28 05:15:42;;;;;;;;;;;20.50;62.70;;;;;;1997302;28;19909;-69
2022/07/28 05:16:40;;;;;;;;;;;20.50;62.70;;;;;;1997483;28;19905;-70
2022/07/28 05:17:39;;;;;;;;;;;20.50;62.70;;;;;;1997357;28;20273;-69
2022/07/28 05:18:37;;;;;;;;;;;20.50;62.70;;;;;;1997315;28;19952;-69
2022/07/28 05:19:36;;;;;;;;;;;20.50;62.70;;;;;;1997371;28;20313;-70
2022/07/28 05:20:34;;;;;;;;;;;20.50;62.70;;;;;;1997281;28;20375;-70
2022/07/28 05:21:33;;;;;;;;;;;20.50;62.70;;;;;;1997563;28;19913;-69
2022/07/28 05:22:45;;;;;;;;;;;20.50;62.70;;;;;;1997259;28;20288;-70
2022/07/28 05:23:44;;;;;;;;;;;20.50;62.70;;;;;;1997544;28;19993;-70
2022/07/28 05:24:44;;;;;;;;;;;20.50;62.70;;;;;;1997267;28;19917;-69
2022/07/28 05:25:42;;;;;;;;;;;20.50;62.70;;;;;;1997256;28;19910;-69
2022/07/28 05:26:41;;;;;;;;;;;20.50;62.80;;;;;;1997169;28;19934;-68
2022/07/28 05:27:39;;;;;;;;;;;20.50;62.70;;;;;;1997204;28;19932;-69
2022/07/28 05:28:38;;;;;;;;;;;20.50;62.70;;;;;;1997260;28;20327;-69
2022/07/28 05:29:39;;;;;;;;;;;20.50;62.70;;;;;;1997201;28;20000;-69
2022/07/28 05:30:38;;;;;;;;;;;20.50;62.80;;;;;;1997041;28;19905;-69
2022/07/28 05:31:36;;;;;;;;;;;20.50;62.70;;;;;;1997307;28;19949;-68
2022/07/28 05:32:35;;;;;;;;;;;20.60;62.80;;;;;;1997236;28;20311;-68
2022/07/28 05:33:34;;;;;;;;;;;20.60;62.80;;;;;;1997370;28;19905;-68
2022/07/28 05:34:33;;;;;;;;;;;20.60;62.80;;;;;;1997214;28;19936;-68
2022/07/28 05:35:31;;;;;;;;;;;20.60;62.80;;;;;;1997375;28;20011;-69
2022/07/28 05:36:30;;;;;;;;;;;20.60;62.80;;;;;;1997372;28;20361;-69
2022/07/28 05:37:31;;;;;;;;;;;20.60;62.80;;;;;;1997468;28;19906;-68
2022/07/28 05:38:30;;;;;;;;;;;20.50;62.70;;;;;;1988705;28;19996;-68
2022/07/28 05:39:31;;;;;;;;;;;20.60;62.80;;;;;;1988757;28;19906;-69
2022/07/28 05:40:30;;;;;;;;;;;20.60;62.80;;;;;;1997041;28;20004;-69
2022/07/28 05:41:28;;;;;;;;;;;20.60;62.80;;;;;;1997117;28;19906;-69
2022/07/28 05:42:28;;;;;;;;;;;20.60;62.80;;;;;;1997131;28;20281;-69
2022/07/28 05:43:26;;;;;;;;;;;20.60;62.80;;;;;;1997053;28;19948;-69
2022/07/28 05:44:25;;;;;;;;;;;20.60;62.80;;;;;;1997028;28;20000;-69
2022/07/28 05:45:23;;;;;;;;;;;20.50;62.70;;;;;;1997112;28;19956;-70
2022/07/28 05:46:22;;;;;;;;;;;20.50;62.70;;;;;;1997097;28;19956;-70
2022/07/28 05:47:21;;;;;;;;;;;20.50;62.70;;;;;;1997066;28;19906;-69
2022/07/28 05:48:20;;;;;;;;;;;20.60;62.80;;;;;;1997148;28;19906;-69
2022/07/28 05:49:19;;;;;;;;;;;20.60;62.80;;;;;;1997050;28;19906;-70
2022/07/28 05:50:19;;;;;;;;;;;20.60;62.80;;;;;;1996963;28;19906;-70
2022/07/28 05:51:17;;;;;;;;;;;20.60;62.80;;;;;;1997192;28;19906;-70
2022/07/28 05:52:16;;;;;;;;;;;20.60;62.80;;;;;;1997162;28;19910;-68